Strona główna
METAR-TAF:

METAR-TAF

Lotnisko :

Port lotniczy Newquay

Newquay Cornwall, Anglia

Szerokość geograficzna: 50-26N, Długość geograficzna: 005-00W, wysokość: 119 m

Aktualna obserwacja pogody

Raport powstał 20 minut temu, godzina 08:20 UTC
Wiatr 9 kt od wschodnio-południowy wschód
Temperatura 9°C
Wilgotność 71%
Ciśnienie 1028 hPa
Widzialność 10 km lub więcej
Brak chmur poniżej 1500 m i brak chmur cumulonimbus

METAR: EGHQ 070820Z 11009KT CAVOK 09/04 Q1028

czas: 09:40 (08:40 UTC)

Prognoza

Raport powstał 38 minut temu, godzina 08:02 UTC
Prognoza ważna od 07 godzina 09 UTC do 07 godzina 18 UTC
Wiatr 12 kt od wschodnio-południowy wschód
Widzialność 10 km lub więcej
Mało chmury na wysokości 3000 ft
Przejściowo
od 07 godzina 16 UTC do 07 godzina 18 UTC
Przerywane chmury na wysokości 1000 ft

TAF: EGHQ 070802Z 0709/0718 12012KT 9999 FEW030 TEMPO 0716/0718 BKN010

Obserwacja i prognoza pogody dla ponad 4000 lotnisk (raport METAR i TAF).

Dostępne stacje oznaczono żółtymi i czerwonymi punktami na mapie.

Najedź kursorem aby zobaczyć nazwę stacji.

Kliknij aby zobaczyć obserwacje i prognozy pogody.

Aby zmienić mapę: kliknij na zielony przycisk z czarnym krzyżykiem, aby powiększyć; na zielony przycisk z myślnikiem, aby pomniejszyć; na zielone strzałki, aby przejść do map sąsiednich.


METAR-TAF: